Terminal Aerodrome Forecast
Issued by NWS

Home | Current Version | Previous Version | Text Only | Print | Product List | Glossary On
Versions: 1 2 3 4 5 6 7 8 9 10 11 12 13 14 15 16 17 18 19 20 21 22 23 24 25 26 27 28
000
FTUS45 KGJT 271407 AAA
TAFTEX
TAF AMD
KTEX 271407Z 2714/2812 12006KT P6SM SCT080
     FM271600 15005KT P6SM -SHRA FEW025 BKN050 OVC080
      TEMPO 2716/2718 VRB10G20KT 5SM TSRA BR BKN025 OVC045CB
     FM271800 23008G15KT P6SM -TSRA SCT050CB OVC080
     FM280200 16006KT P6SM VCSH SCT040 OVC070=

USA.gov is the U.S. government's official web portal to all federal, state and local government web resources and services.